sensor_id;sensor_type;location;lat;lon;timestamp;pressure;altitude;pressure_sealevel;temperature;humidity
28354;BME280;15603;50.878;8.036;2023-12-22T00:00:57;142533.66;;;-3.13;100.00
28354;BME280;15603;50.878;8.036;2023-12-22T00:03:24;142551.69;;;-3.05;100.00
28354;BME280;15603;50.878;8.036;2023-12-22T00:05:51;142536.03;;;-3.12;100.00
28354;BME280;15603;50.878;8.036;2023-12-22T00:08:18;142472.31;;;-3.39;100.00
28354;BME280;15603;50.878;8.036;2023-12-22T00:10:45;142524.03;;;-3.17;100.00
28354;BME280;15603;50.878;8.036;2023-12-22T00:13:13;142502.38;;;-3.26;100.00
28354;BME280;15603;50.878;8.036;2023-12-22T00:15:40;142495.16;;;-3.29;100.00
28354;BME280;15603;50.878;8.036;2023-12-22T00:18:07;142468.69;;;-3.41;100.00
28354;BME280;15603;50.878;8.036;2023-12-22T00:20:34;142456.69;;;-3.46;100.00
28354;BME280;15603;50.878;8.036;2023-12-22T00:23:02;142439.84;;;-3.53;100.00
28354;BME280;15603;50.878;8.036;2023-12-22T00:25:29;142372.50;;;-3.82;100.00
28354;BME280;15603;50.878;8.036;2023-12-22T00:27:56;142436.22;;;-3.55;100.00
28354;BME280;15603;50.878;8.036;2023-12-22T00:30:23;142427.81;;;-3.58;100.00
28354;BME280;15603;50.878;8.036;2023-12-22T00:32:51;142409.78;;;-3.66;100.00
28354;BME280;15603;50.878;8.036;2023-12-22T00:35:18;142378.50;;;-3.79;100.00
28354;BME280;15603;50.878;8.036;2023-12-22T00:37:45;142395.34;;;-3.72;100.00
28354;BME280;15603;50.878;8.036;2023-12-22T00:40:13;142418.19;;;-3.62;100.00
28354;BME280;15603;50.878;8.036;2023-12-22T00:42:40;142237.91;;;-4.39;100.00
28354;BME280;15603;50.878;8.036;2023-12-22T00:45:07;142358.09;;;-3.88;100.00
28354;BME280;15603;50.878;8.036;2023-12-22T00:47:34;142355.69;;;-3.89;100.00
28354;BME280;15603;50.878;8.036;2023-12-22T00:50:03;142365.34;;;-3.85;100.00
28354;BME280;15603;50.878;8.036;2023-12-22T00:52:32;142245.13;;;-4.36;100.00
28354;BME280;15603;50.878;8.036;2023-12-22T00:54:59;142328.03;;;-4.01;100.00
28354;BME280;15603;50.878;8.036;2023-12-22T00:57:26;142334.06;;;-3.98;100.00
28354;BME280;15603;50.878;8.036;2023-12-22T00:59:53;142329.28;;;-4.00;100.00
28354;BME280;15603;50.878;8.036;2023-12-22T01:02:20;142300.41;;;-4.12;100.00
28354;BME280;15603;50.878;8.036;2023-12-22T01:04:48;142298.03;;;-4.13;100.00
28354;BME280;15603;50.878;8.036;2023-12-22T01:07:15;142317.25;;;-4.05;100.00
28354;BME280;15603;50.878;8.036;2023-12-22T01:09:42;142286.00;;;-4.19;100.00
28354;BME280;15603;50.878;8.036;2023-12-22T01:12:10;142323.22;;;-4.03;100.00
28354;BME280;15603;50.878;8.036;2023-12-22T01:14:37;142343.69;;;-3.94;100.00
28354;BME280;15603;50.878;8.036;2023-12-22T01:17:05;142342.44;;;-3.95;100.00
28354;BME280;15603;50.878;8.036;2023-12-22T01:19:32;142336.47;;;-3.97;100.00
28354;BME280;15603;50.878;8.036;2023-12-22T01:21:59;142288.38;;;-4.18;100.00
28354;BME280;15603;50.878;8.036;2023-12-22T01:24:26;142324.41;;;-4.02;100.00
28354;BME280;15603;50.878;8.036;2023-12-22T01:26:53;142338.88;;;-3.96;100.00
28354;BME280;15603;50.878;8.036;2023-12-22T01:29:20;142336.47;;;-3.97;100.00
28354;BME280;15603;50.878;8.036;2023-12-22T01:31:47;142338.88;;;-3.96;100.00
28354;BME280;15603;50.878;8.036;2023-12-22T01:34:14;142358.09;;;-3.88;100.00
28354;BME280;15603;50.878;8.036;2023-12-22T01:36:41;142338.88;;;-3.96;100.00
28354;BME280;15603;50.878;8.036;2023-12-22T01:39:09;142343.69;;;-3.94;100.00
28354;BME280;15603;50.878;8.036;2023-12-22T01:41:36;142344.88;;;-3.93;100.00
28354;BME280;15603;50.878;8.036;2023-12-22T01:44:03;142358.09;;;-3.88;100.00
28354;BME280;15603;50.878;8.036;2023-12-22T01:46:31;142319.63;;;-4.04;100.00
28354;BME280;15603;50.878;8.036;2023-12-22T01:48:58;142348.50;;;-3.92;100.00
28354;BME280;15603;50.878;8.036;2023-12-22T01:51:32;142370.13;;;-3.83;100.00
28354;BME280;15603;50.878;8.036;2023-12-22T01:54:00;142383.38;;;-3.77;100.00
28354;BME280;15603;50.878;8.036;2023-12-22T01:56:28;142295.59;;;-4.15;100.00
28354;BME280;15603;50.878;8.036;2023-12-22T01:58:59;142356.91;;;-3.88;100.00
28354;BME280;15603;50.878;8.036;2023-12-22T02:01:27;142370.13;;;-3.83;100.00
28354;BME280;15603;50.878;8.036;2023-12-22T02:03:56;142358.09;;;-3.88;100.00
28354;BME280;15603;50.878;8.036;2023-12-22T02:06:24;142359.28;;;-3.87;100.00
28354;BME280;15603;50.878;8.036;2023-12-22T02:08:51;142389.34;;;-3.75;100.00
28354;BME280;15603;50.878;8.036;2023-12-22T02:11:18;142384.56;;;-3.77;100.00
28354;BME280;15603;50.878;8.036;2023-12-22T02:13:46;142379.75;;;-3.79;100.00
28354;BME280;15603;50.878;8.036;2023-12-22T02:18:59;142355.69;;;-3.89;100.00
28354;BME280;15603;50.878;8.036;2023-12-22T02:21:31;142365.34;;;-3.85;100.00
28354;BME280;15603;50.878;8.036;2023-12-22T02:23:58;142338.88;;;-3.96;100.00
28354;BME280;15603;50.878;8.036;2023-12-22T02:26:37;142346.06;;;-3.93;100.00
28354;BME280;15603;50.878;8.036;2023-12-22T02:29:09;142245.13;;;-4.36;100.00
28354;BME280;15603;50.878;8.036;2023-12-22T02:31:42;142308.81;;;-4.09;100.00
28354;BME280;15603;50.878;8.036;2023-12-22T02:34:14;142314.81;;;-4.06;100.00
28354;BME280;15603;50.878;8.036;2023-12-22T02:36:45;142296.78;;;-4.14;100.00
28354;BME280;15603;50.878;8.036;2023-12-22T02:39:14;142270.34;;;-4.25;100.00
28354;BME280;15603;50.878;8.036;2023-12-22T02:41:43;142206.66;;;-4.53;100.00
28354;BME280;15603;50.878;8.036;2023-12-22T02:44:11;142141.81;;;-4.80;100.00
28354;BME280;15603;50.878;8.036;2023-12-22T02:46:39;142149.06;;;-4.77;100.00
28354;BME280;15603;50.878;8.036;2023-12-22T02:49:07;142104.59;;;-4.96;100.00
28354;BME280;15603;50.878;8.036;2023-12-22T02:51:34;142109.41;;;-4.94;100.00
28354;BME280;15603;50.878;8.036;2023-12-22T02:54:02;142055.38;;;-5.17;100.00
28354;BME280;15603;50.878;8.036;2023-12-22T02:56:29;142077.00;;;-5.08;100.00
28354;BME280;15603;50.878;8.036;2023-12-22T02:58:56;142052.94;;;-5.18;100.00
28354;BME280;15603;50.878;8.036;2023-12-22T03:01:23;142077.00;;;-5.08;100.00
28354;BME280;15603;50.878;8.036;2023-12-22T03:03:50;142084.16;;;-5.05;100.00
28354;BME280;15603;50.878;8.036;2023-12-22T03:06:17;142088.97;;;-5.03;100.00
28354;BME280;15603;50.878;8.036;2023-12-22T03:08:44;142088.97;;;-5.03;100.00
28354;BME280;15603;50.878;8.036;2023-12-22T03:11:11;142060.16;;;-5.15;100.00
28354;BME280;15603;50.878;8.036;2023-12-22T03:13:39;142026.53;;;-5.29;100.00
28354;BME280;15603;50.878;8.036;2023-12-22T03:16:09;142013.31;;;-5.35;100.00
28354;BME280;15603;50.878;8.036;2023-12-22T03:18:38;142012.13;;;-5.36;100.00
28354;BME280;15603;50.878;8.036;2023-12-22T03:21:06;142036.16;;;-5.25;100.00
28354;BME280;15603;50.878;8.036;2023-12-22T03:23:33;141990.50;;;-5.45;100.00
28354;BME280;15603;50.878;8.036;2023-12-22T03:26:03;142038.56;;;-5.24;100.00
28354;BME280;15603;50.878;8.036;2023-12-22T03:28:30;142028.94;;;-5.28;100.00
28354;BME280;15603;50.878;8.036;2023-12-22T03:30:57;142054.13;;;-5.18;100.00
28354;BME280;15603;50.878;8.036;2023-12-22T03:33:24;142037.38;;;-5.25;100.00
28354;BME280;15603;50.878;8.036;2023-12-22T03:35:51;142048.16;;;-5.20;100.00
28354;BME280;15603;50.878;8.036;2023-12-22T03:38:18;142046.97;;;-5.21;100.00
28354;BME280;15603;50.878;8.036;2023-12-22T03:40:45;142086.59;;;-5.04;100.00
28354;BME280;15603;50.878;8.036;2023-12-22T03:43:12;142087.78;;;-5.03;100.00
28354;BME280;15603;50.878;8.036;2023-12-22T03:45:40;142106.97;;;-4.95;100.00
28354;BME280;15603;50.878;8.036;2023-12-22T03:48:07;142074.56;;;-5.09;100.00
28354;BME280;15603;50.878;8.036;2023-12-22T03:50:34;142103.38;;;-4.97;100.00
28354;BME280;15603;50.878;8.036;2023-12-22T03:53:01;142113.03;;;-4.93;100.00
28354;BME280;15603;50.878;8.036;2023-12-22T03:55:29;142097.38;;;-4.99;100.00
28354;BME280;15603;50.878;8.036;2023-12-22T03:57:56;142062.53;;;-5.14;100.00
28354;BME280;15603;50.878;8.036;2023-12-22T04:00:24;142052.94;;;-5.18;100.00
28354;BME280;15603;50.878;8.036;2023-12-22T04:02:51;142038.56;;;-5.24;100.00
28354;BME280;15603;50.878;8.036;2023-12-22T04:05:19;142057.75;;;-5.16;100.00
28354;BME280;15603;50.878;8.036;2023-12-22T04:07:47;142055.38;;;-5.17;100.00
28354;BME280;15603;50.878;8.036;2023-12-22T04:10:16;142060.16;;;-5.15;100.00
28354;BME280;15603;50.878;8.036;2023-12-22T04:12:44;141900.50;;;-5.83;100.00
28354;BME280;15603;50.878;8.036;2023-12-22T04:15:12;142043.34;;;-5.22;100.00
28354;BME280;15603;50.878;8.036;2023-12-22T04:17:40;141943.72;;;-5.65;100.00
28354;BME280;15603;50.878;8.036;2023-12-22T04:20:07;141923.28;;;-5.74;100.00
28354;BME280;15603;50.878;8.036;2023-12-22T04:22:35;142012.13;;;-5.36;100.00
28354;BME280;15603;50.878;8.036;2023-12-22T04:25:02;142002.53;;;-5.40;100.00
28354;BME280;15603;50.878;8.036;2023-12-22T04:27:30;142036.16;;;-5.25;100.00
28354;BME280;15603;50.878;8.036;2023-12-22T04:29:57;142010.94;;;-5.36;100.00
28354;BME280;15603;50.878;8.036;2023-12-22T04:32:25;142014.56;;;-5.35;100.00
28354;BME280;15603;50.878;8.036;2023-12-22T04:34:52;142036.16;;;-5.25;100.00
28354;BME280;15603;50.878;8.036;2023-12-22T04:37:19;142044.53;;;-5.22;100.00
28354;BME280;15603;50.878;8.036;2023-12-22T04:39:47;142043.34;;;-5.22;100.00
28354;BME280;15603;50.878;8.036;2023-12-22T04:42:14;142031.31;;;-5.27;100.00
28354;BME280;15603;50.878;8.036;2023-12-22T04:44:41;142052.94;;;-5.18;100.00
28354;BME280;15603;50.878;8.036;2023-12-22T04:47:08;142068.59;;;-5.11;100.00
28354;BME280;15603;50.878;8.036;2023-12-22T04:49:35;142062.53;;;-5.14;100.00
28354;BME280;15603;50.878;8.036;2023-12-22T04:52:03;142055.38;;;-5.17;100.00
28354;BME280;15603;50.878;8.036;2023-12-22T04:54:30;142001.34;;;-5.40;100.00
28354;BME280;15603;50.878;8.036;2023-12-22T04:56:57;142038.56;;;-5.24;100.00
28354;BME280;15603;50.878;8.036;2023-12-22T04:59:24;142069.78;;;-5.11;100.00
28354;BME280;15603;50.878;8.036;2023-12-22T05:01:51;142075.75;;;-5.08;100.00
28354;BME280;15603;50.878;8.036;2023-12-22T05:04:18;142099.81;;;-4.98;100.00
28354;BME280;15603;50.878;8.036;2023-12-22T05:06:45;142146.63;;;-4.78;100.00
28354;BME280;15603;50.878;8.036;2023-12-22T05:09:13;142176.66;;;-4.65;100.00
28354;BME280;15603;50.878;8.036;2023-12-22T05:11:40;142170.63;;;-4.68;100.00
28354;BME280;15603;50.878;8.036;2023-12-22T05:14:10;142216.28;;;-4.48;100.00
28354;BME280;15603;50.878;8.036;2023-12-22T05:16:38;142240.34;;;-4.38;100.00
28354;BME280;15603;50.878;8.036;2023-12-22T05:19:05;142254.75;;;-4.32;100.00
28354;BME280;15603;50.878;8.036;2023-12-22T05:21:32;142249.94;;;-4.34;100.00
28354;BME280;15603;50.878;8.036;2023-12-22T05:23:59;142251.13;;;-4.34;100.00
28354;BME280;15603;50.878;8.036;2023-12-22T05:26:26;142221.13;;;-4.46;100.00
28354;BME280;15603;50.878;8.036;2023-12-22T05:28:57;142222.31;;;-4.46;100.00
28354;BME280;15603;50.878;8.036;2023-12-22T05:31:24;142277.56;;;-4.22;100.00
28354;BME280;15603;50.878;8.036;2023-12-22T05:33:51;142265.53;;;-4.27;100.00
28354;BME280;15603;50.878;8.036;2023-12-22T05:36:19;142200.69;;;-4.55;100.00
28354;BME280;15603;50.878;8.036;2023-12-22T05:38:46;142290.78;;;-4.17;100.00
28354;BME280;15603;50.878;8.036;2023-12-22T05:41:14;142344.88;;;-3.93;100.00
28354;BME280;15603;50.878;8.036;2023-12-22T05:43:41;142301.59;;;-4.12;100.00
28354;BME280;15603;50.878;8.036;2023-12-22T05:46:09;142182.66;;;-4.63;100.00
28354;BME280;15603;50.878;8.036;2023-12-22T05:48:36;142349.69;;;-3.91;100.00
28354;BME280;15603;50.878;8.036;2023-12-22T05:51:04;142349.69;;;-3.91;100.00
28354;BME280;15603;50.878;8.036;2023-12-22T05:53:34;142395.34;;;-3.72;100.00
28354;BME280;15603;50.878;8.036;2023-12-22T05:56:01;142358.09;;;-3.88;100.00
28354;BME280;15603;50.878;8.036;2023-12-22T05:58:29;142386.94;;;-3.76;100.00
28354;BME280;15603;50.878;8.036;2023-12-22T06:00:56;142386.94;;;-3.76;100.00
28354;BME280;15603;50.878;8.036;2023-12-22T06:03:23;142293.22;;;-4.16;100.00
28354;BME280;15603;50.878;8.036;2023-12-22T06:05:50;142348.50;;;-3.92;100.00
28354;BME280;15603;50.878;8.036;2023-12-22T06:08:18;142331.66;;;-3.99;100.00
28354;BME280;15603;50.878;8.036;2023-12-22T06:10:45;142282.38;;;-4.20;100.00
28354;BME280;15603;50.878;8.036;2023-12-22T06:13:12;142295.59;;;-4.15;100.00
28354;BME280;15603;50.878;8.036;2023-12-22T06:15:39;142365.34;;;-3.85;100.00
28354;BME280;15603;50.878;8.036;2023-12-22T06:18:07;143133.25;;;-0.57;100.00
28354;BME280;15603;50.878;8.036;2023-12-22T06:20:34;143058.53;;;-0.89;100.00
28354;BME280;15603;50.878;8.036;2023-12-22T06:23:01;143076.59;;;-0.82;100.00
28354;BME280;15603;50.878;8.036;2023-12-22T06:25:28;143050.09;;;-0.93;100.00
28354;BME280;15603;50.878;8.036;2023-12-22T06:27:55;143027.19;;;-1.03;100.00
28354;BME280;15603;50.878;8.036;2023-12-22T06:30:22;142974.19;;;-1.25;100.00
28354;BME280;15603;50.878;8.036;2023-12-22T06:32:50;142678.03;;;-2.51;100.00
28354;BME280;15603;50.878;8.036;2023-12-22T06:35:18;142726.16;;;-2.31;100.00
28354;BME280;15603;50.878;8.036;2023-12-22T06:37:51;142728.56;;;-2.30;100.00
28354;BME280;15603;50.878;8.036;2023-12-22T06:40:19;142568.53;;;-2.98;100.00
28354;BME280;15603;50.878;8.036;2023-12-22T06:42:46;142650.34;;;-2.63;100.00
28354;BME280;15603;50.878;8.036;2023-12-22T06:45:13;142604.63;;;-2.83;100.00
28354;BME280;15603;50.878;8.036;2023-12-22T06:47:40;142634.69;;;-2.70;100.00
28354;BME280;15603;50.878;8.036;2023-12-22T06:50:08;142555.31;;;-3.04;100.00
28354;BME280;15603;50.878;8.036;2023-12-22T06:52:35;142627.50;;;-2.73;100.00
28354;BME280;15603;50.878;8.036;2023-12-22T06:55:03;142634.69;;;-2.70;100.00
28354;BME280;15603;50.878;8.036;2023-12-22T06:57:31;142608.22;;;-2.81;100.00
28354;BME280;15603;50.878;8.036;2023-12-22T07:00:01;142512.00;;;-3.22;100.00
28354;BME280;15603;50.878;8.036;2023-12-22T07:02:29;142574.53;;;-2.96;100.00
28354;BME280;15603;50.878;8.036;2023-12-22T07:07:37;142611.81;;;-2.80;100.00
28354;BME280;15603;50.878;8.036;2023-12-22T07:10:04;142603.41;;;-2.83;100.00
28354;BME280;15603;50.878;8.036;2023-12-22T07:12:32;142682.84;;;-2.49;100.00
28354;BME280;15603;50.878;8.036;2023-12-22T07:14:59;142664.78;;;-2.57;100.00
28354;BME280;15603;50.878;8.036;2023-12-22T07:17:26;142615.44;;;-2.78;100.00
28354;BME280;15603;50.878;8.036;2023-12-22T07:19:53;142649.13;;;-2.64;100.00
28354;BME280;15603;50.878;8.036;2023-12-22T07:22:24;142629.88;;;-2.72;100.00
28354;BME280;15603;50.878;8.036;2023-12-22T07:24:52;142540.84;;;-3.10;100.00
28354;BME280;15603;50.878;8.036;2023-12-22T07:27:19;142564.94;;;-3.00;100.00
28354;BME280;15603;50.878;8.036;2023-12-22T07:29:46;142661.16;;;-2.59;100.00
28354;BME280;15603;50.878;8.036;2023-12-22T07:32:13;142601.00;;;-2.84;100.00
28354;BME280;15603;50.878;8.036;2023-12-22T07:34:42;142703.25;;;-2.41;100.00
28354;BME280;15603;50.878;8.036;2023-12-22T07:37:11;142704.50;;;-2.40;100.00
28354;BME280;15603;50.878;8.036;2023-12-22T07:39:38;142631.06;;;-2.71;100.00
28354;BME280;15603;50.878;8.036;2023-12-22T07:42:05;142639.50;;;-2.68;100.00
28354;BME280;15603;50.878;8.036;2023-12-22T07:44:33;142668.41;;;-2.55;100.00
28354;BME280;15603;50.878;8.036;2023-12-22T07:47:00;142682.84;;;-2.49;100.00
28354;BME280;15603;50.878;8.036;2023-12-22T07:49:30;142634.69;;;-2.70;100.00
28354;BME280;15603;50.878;8.036;2023-12-22T07:51:59;142739.38;;;-2.25;100.00
28354;BME280;15603;50.878;8.036;2023-12-22T07:54:29;142746.59;;;-2.22;100.00
28354;BME280;15603;50.878;8.036;2023-12-22T07:56:56;142767.09;;;-2.13;100.00
28354;BME280;15603;50.878;8.036;2023-12-22T07:59:23;142758.66;;;-2.17;100.00
28354;BME280;15603;50.878;8.036;2023-12-22T08:01:58;142762.28;;;-2.15;100.00
28354;BME280;15603;50.878;8.036;2023-12-22T08:04:25;142739.38;;;-2.25;100.00
28354;BME280;15603;50.878;8.036;2023-12-22T08:06:52;142799.59;;;-2.00;100.00
28354;BME280;15603;50.878;8.036;2023-12-22T08:09:21;142847.72;;;-1.79;100.00
28354;BME280;15603;50.878;8.036;2023-12-22T08:11:49;142824.84;;;-1.89;100.00
28354;BME280;15603;50.878;8.036;2023-12-22T08:14:19;142755.03;;;-2.19;100.00
28354;BME280;15603;50.878;8.036;2023-12-22T08:16:46;142846.53;;;-1.80;100.00
28354;BME280;15603;50.878;8.036;2023-12-22T08:19:13;142867.00;;;-1.71;100.00
28354;BME280;15603;50.878;8.036;2023-12-22T08:21:45;142851.34;;;-1.78;100.00
28354;BME280;15603;50.878;8.036;2023-12-22T08:24:16;142833.28;;;-1.85;100.00
28354;BME280;15603;50.878;8.036;2023-12-22T08:26:50;142873.03;;;-1.68;100.00
28354;BME280;15603;50.878;8.036;2023-12-22T08:29:17;142879.03;;;-1.66;100.00
28354;BME280;15603;50.878;8.036;2023-12-22T08:31:46;142874.22;;;-1.68;100.00
28354;BME280;15603;50.878;8.036;2023-12-22T08:34:14;142868.22;;;-1.70;100.00
28354;BME280;15603;50.878;8.036;2023-12-22T08:36:41;142863.41;;;-1.72;100.00
28354;BME280;15603;50.878;8.036;2023-12-22T08:39:08;142923.59;;;-1.47;100.00
28354;BME280;15603;50.878;8.036;2023-12-22T08:41:36;142850.16;;;-1.78;100.00
28354;BME280;15603;50.878;8.036;2023-12-22T08:44:05;142969.34;;;-1.27;100.00
28354;BME280;15603;50.878;8.036;2023-12-22T08:46:34;142987.44;;;-1.20;100.00
28354;BME280;15603;50.878;8.036;2023-12-22T08:49:02;142964.53;;;-1.29;100.00
28354;BME280;15603;50.878;8.036;2023-12-22T08:51:30;142983.84;;;-1.21;100.00
28354;BME280;15603;50.878;8.036;2023-12-22T08:53:58;142840.53;;;-1.82;100.00
28354;BME280;15603;50.878;8.036;2023-12-22T08:56:26;142922.41;;;-1.47;100.00
28354;BME280;15603;50.878;8.036;2023-12-22T08:58:54;142880.25;;;-1.65;100.00
28354;BME280;15603;50.878;8.036;2023-12-22T09:01:22;142976.59;;;-1.24;100.00
28354;BME280;15603;50.878;8.036;2023-12-22T09:03:50;142946.47;;;-1.37;100.00
28354;BME280;15603;50.878;8.036;2023-12-22T09:06:18;142960.97;;;-1.31;100.00
28354;BME280;15603;50.878;8.036;2023-12-22T09:08:46;142985.03;;;-1.21;100.00
28354;BME280;15603;50.878;8.036;2023-12-22T09:11:16;143003.13;;;-1.13;100.00
28354;BME280;15603;50.878;8.036;2023-12-22T09:13:43;143012.75;;;-1.09;100.00
28354;BME280;15603;50.878;8.036;2023-12-22T09:16:11;142938.03;;;-1.41;100.00
28354;BME280;15603;50.878;8.036;2023-12-22T09:18:41;143056.13;;;-0.90;100.00
28354;BME280;15603;50.878;8.036;2023-12-22T09:21:12;143026.00;;;-1.03;100.00
28354;BME280;15603;50.878;8.036;2023-12-22T09:23:39;143026.00;;;-1.03;100.00
28354;BME280;15603;50.878;8.036;2023-12-22T09:26:06;143046.47;;;-0.94;100.00
28354;BME280;15603;50.878;8.036;2023-12-22T09:28:33;143034.44;;;-1.00;100.00
28354;BME280;15603;50.878;8.036;2023-12-22T09:31:02;143042.88;;;-0.96;100.00
28354;BME280;15603;50.878;8.036;2023-12-22T09:33:32;143044.06;;;-0.95;100.00
28354;BME280;15603;50.878;8.036;2023-12-22T09:35:59;143059.72;;;-0.89;100.00
28354;BME280;15603;50.878;8.036;2023-12-22T09:38:26;143033.25;;;-1.00;100.00
28354;BME280;15603;50.878;8.036;2023-12-22T09:40:55;143046.47;;;-0.94;100.00
28354;BME280;15603;50.878;8.036;2023-12-22T09:43:23;143075.41;;;-0.82;100.00
28354;BME280;15603;50.878;8.036;2023-12-22T09:45:51;143053.72;;;-0.91;100.00
28354;BME280;15603;50.878;8.036;2023-12-22T09:48:23;143053.72;;;-0.91;100.00
28354;BME280;15603;50.878;8.036;2023-12-22T09:50:54;142909.16;;;-1.53;100.00
28354;BME280;15603;50.878;8.036;2023-12-22T09:53:22;143034.44;;;-1.00;100.00
28354;BME280;15603;50.878;8.036;2023-12-22T09:55:52;143054.91;;;-0.91;100.00
28354;BME280;15603;50.878;8.036;2023-12-22T09:58:21;143046.47;;;-0.94;100.00
28354;BME280;15603;50.878;8.036;2023-12-22T10:00:49;143081.41;;;-0.80;100.00
28354;BME280;15603;50.878;8.036;2023-12-22T10:03:19;143086.22;;;-0.77;100.00
28354;BME280;15603;50.878;8.036;2023-12-22T10:05:47;142976.59;;;-1.24;100.00
28354;BME280;15603;50.878;8.036;2023-12-22T10:08:14;143077.78;;;-0.81;100.00
28354;BME280;15603;50.878;8.036;2023-12-22T10:10:43;143150.09;;;-0.50;100.00
28354;BME280;15603;50.878;8.036;2023-12-22T10:13:10;143134.47;;;-0.57;100.00
28354;BME280;15603;50.878;8.036;2023-12-22T10:15:41;143109.13;;;-0.68;100.00
28354;BME280;15603;50.878;8.036;2023-12-22T10:18:10;143071.78;;;-0.84;100.00
28354;BME280;15603;50.878;8.036;2023-12-22T10:20:38;143001.91;;;-1.13;100.00
28354;BME280;15603;50.878;8.036;2023-12-22T10:23:05;143046.47;;;-0.94;100.00
28354;BME280;15603;50.878;8.036;2023-12-22T10:25:33;143041.66;;;-0.96;100.00
28354;BME280;15603;50.878;8.036;2023-12-22T10:28:00;143115.19;;;-0.65;100.00
28354;BME280;15603;50.878;8.036;2023-12-22T10:30:28;143027.19;;;-1.03;100.00
28354;BME280;15603;50.878;8.036;2023-12-22T10:32:55;143129.63;;;-0.59;100.00
28354;BME280;15603;50.878;8.036;2023-12-22T10:35:23;143106.75;;;-0.69;100.00
28354;BME280;15603;50.878;8.036;2023-12-22T10:37:50;143027.19;;;-1.03;100.00
28354;BME280;15603;50.878;8.036;2023-12-22T10:40:21;143158.53;;;-0.47;100.00
28354;BME280;15603;50.878;8.036;2023-12-22T10:42:50;143130.84;;;-0.58;100.00
28354;BME280;15603;50.878;8.036;2023-12-22T10:45:18;143085.03;;;-0.78;100.00
28354;BME280;15603;50.878;8.036;2023-12-22T10:47:48;143186.28;;;-0.35;100.00
28354;BME280;15603;50.878;8.036;2023-12-22T10:50:19;143183.88;;;-0.36;100.00
28354;BME280;15603;50.878;8.036;2023-12-22T10:52:50;143173.00;;;-0.41;100.00
28354;BME280;15603;50.878;8.036;2023-12-22T10:55:18;143181.44;;;-0.37;100.00
28354;BME280;15603;50.878;8.036;2023-12-22T10:57:48;143227.25;;;-0.17;100.00
28354;BME280;15603;50.878;8.036;2023-12-22T11:00:16;143222.44;;;-0.20;100.00
28354;BME280;15603;50.878;8.036;2023-12-22T11:02:47;143205.59;;;-0.27;100.00
28354;BME280;15603;50.878;8.036;2023-12-22T11:05:18;143221.25;;;-0.20;100.00
28354;BME280;15603;50.878;8.036;2023-12-22T11:07:49;143222.44;;;-0.20;100.00
28354;BME280;15603;50.878;8.036;2023-12-22T11:10:21;143214.03;;;-0.23;100.00
28354;BME280;15603;50.878;8.036;2023-12-22T11:12:49;143261.03;;;-0.03;100.00
28354;BME280;15603;50.878;8.036;2023-12-22T11:15:18;143156.16;;;-0.48;100.00
28354;BME280;15603;50.878;8.036;2023-12-22T11:17:46;143248.97;;;-0.08;100.00
28354;BME280;15603;50.878;8.036;2023-12-22T11:20:16;143224.88;;;-0.18;100.00
28354;BME280;15603;50.878;8.036;2023-12-22T11:22:44;143309.28;;;0.17;100.00
28354;BME280;15603;50.878;8.036;2023-12-22T11:25:12;143280.31;;;0.05;100.00
28354;BME280;15603;50.878;8.036;2023-12-22T11:27:44;143182.69;;;-0.36;100.00
28354;BME280;15603;50.878;8.036;2023-12-22T11:30:14;143160.97;;;-0.46;100.00
28354;BME280;15603;50.878;8.036;2023-12-22T11:32:44;143256.22;;;-0.05;100.00
28354;BME280;15603;50.878;8.036;2023-12-22T11:35:11;143245.34;;;-0.10;100.00
28354;BME280;15603;50.878;8.036;2023-12-22T11:37:39;143251.41;;;-0.07;100.00
28354;BME280;15603;50.878;8.036;2023-12-22T11:40:06;143273.09;;;0.02;100.00
28354;BME280;15603;50.878;8.036;2023-12-22T11:42:37;143261.03;;;-0.03;100.00
28354;BME280;15603;50.878;8.036;2023-12-22T11:45:11;143262.22;;;-0.03;100.00
28354;BME280;15603;50.878;8.036;2023-12-22T11:47:43;143347.84;;;0.34;100.00
28354;BME280;15603;50.878;8.036;2023-12-22T11:50:10;143333.41;;;0.28;100.00
28354;BME280;15603;50.878;8.036;2023-12-22T11:52:38;143256.22;;;-0.05;100.00
28354;BME280;15603;50.878;8.036;2023-12-22T11:55:06;143321.31;;;0.23;100.00
28354;BME280;15603;50.878;8.036;2023-12-22T11:57:36;143343.03;;;0.32;100.00
28354;BME280;15603;50.878;8.036;2023-12-22T12:02:54;143321.31;;;0.23;100.00
28354;BME280;15603;50.878;8.036;2023-12-22T12:05:23;143207.97;;;-0.26;100.00
28354;BME280;15603;50.878;8.036;2023-12-22T12:07:50;143287.56;;;0.08;100.00
28354;BME280;15603;50.878;8.036;2023-12-22T12:13:08;143326.13;;;0.25;100.00
28354;BME280;15603;50.878;8.036;2023-12-22T12:15:36;143181.44;;;-0.37;100.00
28354;BME280;15603;50.878;8.036;2023-12-22T12:18:04;143118.75;;;-0.64;100.00
28354;BME280;15603;50.878;8.036;2023-12-22T12:20:35;143101.94;;;-0.71;100.00
28354;BME280;15603;50.878;8.036;2023-12-22T12:23:02;143093.47;;;-0.74;100.00
28354;BME280;15603;50.878;8.036;2023-12-22T12:25:32;143082.59;;;-0.79;100.00
28354;BME280;15603;50.878;8.036;2023-12-22T12:28:07;143024.81;;;-1.04;100.00
28354;BME280;15603;50.878;8.036;2023-12-22T12:30:37;142998.31;;;-1.15;100.00
28354;BME280;15603;50.878;8.036;2023-12-22T12:33:12;143064.53;;;-0.87;100.00
28354;BME280;15603;50.878;8.036;2023-12-22T12:35:41;143026.00;;;-1.03;100.00
28354;BME280;15603;50.878;8.036;2023-12-22T12:38:17;143056.13;;;-0.90;100.00
28354;BME280;15603;50.878;8.036;2023-12-22T12:40:45;143123.63;;;-0.62;100.00
28354;BME280;15603;50.878;8.036;2023-12-22T12:43:13;143076.59;;;-0.82;100.00
28354;BME280;15603;50.878;8.036;2023-12-22T12:45:40;143075.41;;;-0.82;100.00
28354;BME280;15603;50.878;8.036;2023-12-22T12:48:08;143140.47;;;-0.54;100.00
28354;BME280;15603;50.878;8.036;2023-12-22T12:50:35;143188.69;;;-0.34;100.00
28354;BME280;15603;50.878;8.036;2023-12-22T12:53:05;143167.00;;;-0.43;100.00
28354;BME280;15603;50.878;8.036;2023-12-22T12:55:32;143200.78;;;-0.29;100.00